Time;durP1;ratioP1;P1;durP2;ratioP2;P2;SDS_P1;SDS_P2;PMS_P1;PMS_P2;Temp;Humidity;BMP_temperature;BMP_pressure;BME280_temperature;BME280_humidity;BME280_pressure;Samples;Min_cycle;Max_cycle;Signal;HPM_P1;HPM_P2
2022/02/13 00:00:36;;;;;;;14.32;6.20;;;0.90;99.90;;;;;;5072572;28;20048;-66
2022/02/13 00:03:04;;;;;;;13.43;6.88;;;0.80;99.90;;;;;;5054770;28;20151;-66
2022/02/13 00:05:31;;;;;;;11.52;6.43;;;0.80;99.90;;;;;;5073671;28;20044;-66
2022/02/13 00:08:00;;;;;;;14.38;6.32;;;0.80;99.90;;;;;;5070827;28;20037;-66
2022/02/13 00:10:28;;;;;;;10.93;6.18;;;0.80;99.90;;;;;;5071992;28;20133;-66
2022/02/13 00:12:56;;;;;;;11.32;6.13;;;0.80;99.90;;;;;;5072697;28;20051;-66
2022/02/13 00:15:23;;;;;;;8.63;5.57;;;0.80;99.90;;;;;;5070384;28;20051;-65
2022/02/13 00:17:50;;;;;;;13.60;6.63;;;0.70;99.90;;;;;;5055787;28;20056;-65
2022/02/13 00:20:23;;;;;;;;;;;0.60;99.90;;;;;;5071998;28;20041;-66
2022/02/13 00:22:51;;;;;;;10.68;5.80;;;0.60;99.90;;;;;;5070934;28;19930;-65
2022/02/13 00:25:19;;;;;;;11.45;6.28;;;0.60;99.90;;;;;;5071258;28;20037;-66
2022/02/13 00:27:46;;;;;;;11.77;6.18;;;0.60;99.90;;;;;;5071916;28;20040;-65
2022/02/13 00:30:16;;;;;;;11.98;6.68;;;0.70;99.90;;;;;;5071695;28;20124;-65
2022/02/13 00:32:45;;;;;;;11.02;6.10;;;0.70;99.90;;;;;;5071311;28;20052;-64
2022/02/13 00:35:15;;;;;;;13.10;6.35;;;0.80;99.90;;;;;;5072455;28;20131;-66
2022/02/13 00:37:43;;;;;;;9.40;6.00;;;0.80;99.90;;;;;;5053186;28;20048;-65
2022/02/13 00:40:11;;;;;;;16.80;6.75;;;0.90;99.90;;;;;;5054656;28;20522;-66
2022/02/13 00:42:39;;;;;;;11.68;6.05;;;0.80;99.90;;;;;;5056422;28;20045;-65
2022/02/13 00:45:07;;;;;;;12.95;6.68;;;0.80;99.90;;;;;;5052181;28;20049;-66
2022/02/13 00:47:34;;;;;;;10.52;6.05;;;0.70;99.90;;;;;;5055888;28;20036;-66
2022/02/13 00:50:02;;;;;;;14.20;6.57;;;0.70;99.90;;;;;;5057450;28;20136;-66
2022/02/13 00:52:32;;;;;;;11.93;6.53;;;0.70;99.90;;;;;;5052834;28;20037;-66
2022/02/13 00:55:00;;;;;;;13.25;6.68;;;0.70;99.90;;;;;;5064878;28;20143;-65
2022/02/13 00:57:29;;;;;;;12.48;7.05;;;0.60;99.90;;;;;;5056366;28;20094;-66
2022/02/13 00:59:57;;;;;;;14.27;7.00;;;0.60;99.90;;;;;;5054744;28;20041;-66
2022/02/13 01:02:25;;;;;;;13.95;6.97;;;0.60;99.90;;;;;;5057049;28;20041;-66
2022/02/13 01:04:54;;;;;;;11.45;6.85;;;0.50;99.90;;;;;;5060105;28;20048;-65
2022/02/13 01:07:23;;;;;;;13.60;7.07;;;0.50;99.90;;;;;;5068996;28;20044;-66
2022/02/13 01:09:51;;;;;;;15.52;7.13;;;0.60;99.90;;;;;;5069964;28;20078;-65
2022/02/13 01:12:19;;;;;;;12.50;6.65;;;0.50;99.90;;;;;;5069979;28;20049;-65
2022/02/13 01:14:46;;;;;;;16.33;7.72;;;0.50;99.90;;;;;;5068790;28;20492;-66
2022/02/13 01:17:13;;;;;;;12.30;7.20;;;0.40;99.90;;;;;;5071628;28;20525;-66
2022/02/13 01:19:40;;;;;;;12.90;7.38;;;0.40;99.90;;;;;;5067597;28;20052;-66
2022/02/13 01:22:08;;;;;;;14.90;6.93;;;0.30;99.90;;;;;;5070845;28;20132;-65
2022/02/13 01:24:35;;;;;;;13.77;6.97;;;0.40;99.90;;;;;;5069342;28;20049;-65
2022/02/13 01:27:03;;;;;;;12.35;6.88;;;0.40;99.90;;;;;;5071569;28;20375;-65
2022/02/13 01:29:30;;;;;;;12.88;7.18;;;0.40;99.90;;;;;;5070821;28;20091;-65
2022/02/13 01:31:58;;;;;;;15.30;7.75;;;0.50;99.90;;;;;;5070952;28;20271;-65
2022/02/13 01:34:27;;;;;;;12.68;6.90;;;0.40;99.90;;;;;;5052017;28;20036;-65
2022/02/13 01:36:55;;;;;;;12.25;7.07;;;0.40;99.90;;;;;;5051446;28;20048;-65
2022/02/13 01:39:23;;;;;;;13.63;6.80;;;0.30;99.90;;;;;;5051883;28;20060;-65
2022/02/13 01:41:50;;;;;;;13.20;7.25;;;0.30;99.90;;;;;;5068121;28;20050;-65
2022/02/13 01:44:23;;;;;;;14.70;6.88;;;0.20;99.90;;;;;;5070503;28;20072;-65
2022/02/13 01:46:51;;;;;;;13.30;7.13;;;0.30;99.90;;;;;;5069122;28;20045;-65
2022/02/13 01:49:20;;;;;;;15.05;7.47;;;0.20;99.90;;;;;;5069597;28;20036;-65
2022/02/13 01:51:48;;;;;;;13.95;7.47;;;0.30;99.90;;;;;;5066383;28;20550;-65
2022/02/13 01:54:15;;;;;;;13.60;7.72;;;0.30;99.90;;;;;;5069569;28;20546;-65
2022/02/13 01:56:46;;;;;;;13.77;7.82;;;0.20;99.90;;;;;;5071812;28;20044;-65
2022/02/13 01:59:13;;;;;;;16.08;7.93;;;0.10;99.90;;;;;;5070686;28;20051;-65
2022/02/13 02:01:42;;;;;;;16.52;7.85;;;0.00;99.90;;;;;;5051852;28;20522;-64
2022/02/13 02:04:09;;;;;;;14.73;8.25;;;-0.10;99.90;;;;;;5069635;28;20072;-65
2022/02/13 02:06:36;;;;;;;12.38;7.03;;;-0.10;99.90;;;;;;5069771;28;20116;-65
2022/02/13 02:09:05;;;;;;;15.20;8.23;;;-0.10;99.90;;;;;;5070321;28;20048;-65
2022/02/13 02:11:33;;;;;;;11.40;6.65;;;0.00;99.90;;;;;;5069625;28;20125;-65
2022/02/13 02:14:00;;;;;;;15.15;7.00;;;0.00;99.90;;;;;;5067581;28;20123;-65
2022/02/13 02:16:28;;;;;;;12.73;7.05;;;0.00;99.90;;;;;;5069029;28;20036;-65
2022/02/13 02:18:55;;;;;;;14.38;8.15;;;0.00;99.90;;;;;;5070130;28;20569;-65
2022/02/13 02:21:23;;;;;;;13.63;7.45;;;-0.10;99.90;;;;;;5069454;28;20474;-65
2022/02/13 02:23:50;;;;;;;15.73;7.22;;;-0.20;99.90;;;;;;5068472;28;20132;-64
2022/02/13 02:26:18;;;;;;;17.33;8.02;;;-0.20;99.90;;;;;;5066624;28;20411;-66
2022/02/13 02:28:47;;;;;;;13.60;8.30;;;-0.20;99.90;;;;;;5069297;28;20048;-66
2022/02/13 02:31:15;;;;;;;15.32;7.30;;;-0.20;99.90;;;;;;5069518;28;20147;-66
2022/02/13 02:33:42;;;;;;;13.75;8.10;;;-0.10;99.90;;;;;;5069663;28;20037;-65
2022/02/13 02:36:18;;;;;;;14.85;8.13;;;0.00;99.90;;;;;;5067387;28;20049;-65
2022/02/13 02:38:45;;;;;;;13.70;8.38;;;-0.10;99.90;;;;;;5058128;28;20040;-65
2022/02/13 02:41:14;;;;;;;13.07;8.00;;;-0.10;99.90;;;;;;5065710;28;20048;-65
2022/02/13 02:43:42;;;;;;;14.40;8.40;;;-0.20;99.90;;;;;;5067464;28;20578;-64
2022/02/13 02:46:11;;;;;;;13.90;7.88;;;-0.20;99.90;;;;;;5067096;28;20055;-64
2022/02/13 02:48:39;;;;;;;14.40;7.78;;;-0.30;99.90;;;;;;5069216;28;20488;-66
2022/02/13 02:51:07;;;;;;;12.85;7.88;;;-0.30;99.90;;;;;;5062385;28;20040;-66
2022/02/13 02:53:34;;;;;;;15.20;7.38;;;-0.30;99.90;;;;;;5067889;28;20483;-65
2022/02/13 02:56:02;;;;;;;13.40;7.85;;;-0.40;99.90;;;;;;5064643;28;20076;-65
2022/02/13 02:58:30;;;;;;;17.58;7.90;;;-0.30;99.90;;;;;;5062160;28;20055;-64
2022/02/13 03:00:58;;;;;;;16.67;8.60;;;-0.20;99.90;;;;;;5063382;28;20051;-65
2022/02/13 03:03:25;;;;;;;16.80;8.10;;;-0.30;99.90;;;;;;5068827;28;20101;-65
2022/02/13 03:05:53;;;;;;;16.80;7.65;;;-0.30;99.90;;;;;;5068126;28;20051;-65
2022/02/13 03:08:21;;;;;;;12.55;7.65;;;-0.40;99.90;;;;;;5070097;28;20401;-65
2022/02/13 03:10:49;;;;;;;14.10;7.80;;;-0.50;99.90;;;;;;5070988;28;20517;-65
2022/02/13 03:13:20;;;;;;;12.20;7.45;;;-0.50;99.90;;;;;;5073332;28;20117;-65
2022/02/13 03:15:48;;;;;;;13.90;8.02;;;-0.60;99.90;;;;;;5054787;28;20048;-66
2022/02/13 03:18:18;;;;;;;12.80;7.50;;;-0.50;99.90;;;;;;5073026;28;20041;-65
2022/02/13 03:20:47;;;;;;;14.75;7.70;;;-0.60;99.90;;;;;;5070957;28;20506;-65
2022/02/13 03:23:15;;;;;;;13.88;7.72;;;-0.60;99.90;;;;;;5072282;28;20515;-65
2022/02/13 03:25:43;;;;;;;14.77;7.75;;;-0.50;99.90;;;;;;5062747;28;20514;-65
2022/02/13 03:28:10;;;;;;;13.65;8.15;;;-0.60;99.90;;;;;;5072286;28;20040;-64
2022/02/13 03:30:39;;;;;;;11.68;7.43;;;-0.60;99.90;;;;;;5036529;28;20052;-65
2022/02/13 03:33:06;;;;;;;13.27;8.45;;;-0.70;99.90;;;;;;5071358;28;20770;-65
2022/02/13 03:35:34;;;;;;;16.55;8.45;;;-0.80;99.90;;;;;;5072061;28;20040;-65
2022/02/13 03:38:03;;;;;;;15.15;8.35;;;-0.90;99.90;;;;;;5072465;28;20473;-65
2022/02/13 03:40:30;;;;;;;12.07;7.90;;;-0.90;99.90;;;;;;5060840;28;20056;-65
2022/02/13 03:42:58;;;;;;;13.80;8.02;;;-0.90;99.90;;;;;;5070354;28;20055;-65
2022/02/13 03:45:26;;;;;;;15.45;8.52;;;-0.90;99.90;;;;;;5060121;28;20047;-65
2022/02/13 03:47:53;;;;;;;15.05;8.45;;;-0.90;99.90;;;;;;5071633;28;20040;-65
2022/02/13 03:50:20;;;;;;;14.68;8.40;;;-1.00;99.90;;;;;;5071763;28;20505;-65
2022/02/13 03:52:48;;;;;;;18.08;8.07;;;-1.00;99.90;;;;;;5071689;28;20041;-65
2022/02/13 03:55:16;;;;;;;12.70;7.88;;;-1.00;99.90;;;;;;5069519;28;20040;-65
2022/02/13 03:57:44;;;;;;;14.68;8.05;;;-1.00;99.90;;;;;;5053932;28;20117;-65
2022/02/13 04:00:15;;;;;;;18.38;8.30;;;-1.00;99.90;;;;;;5042462;28;20114;-65
2022/02/13 04:02:42;;;;;;;14.00;8.80;;;-1.00;99.90;;;;;;5065559;28;20033;-66
2022/02/13 04:05:10;;;;;;;16.33;8.13;;;-1.00;99.90;;;;;;5055157;28;20461;-65
2022/02/13 04:07:42;;;;;;;15.98;8.07;;;-1.00;99.90;;;;;;5061252;28;20043;-65
2022/02/13 04:10:12;;;;;;;13.65;7.80;;;-1.00;99.90;;;;;;5068730;28;20517;-65
2022/02/13 04:12:41;;;;;;;16.50;8.15;;;-1.00;99.90;;;;;;5066541;28;20077;-65
2022/02/13 04:15:10;;;;;;;14.98;8.13;;;-1.00;99.90;;;;;;5072217;28;20499;-65
2022/02/13 04:17:38;;;;;;;12.32;7.47;;;-1.10;99.90;;;;;;5053191;28;20479;-65
2022/02/13 04:20:07;;;;;;;16.85;8.00;;;-1.10;99.90;;;;;;5072268;28;20045;-66
2022/02/13 04:22:34;;;;;;;16.77;7.63;;;-1.20;99.90;;;;;;5070926;28;20058;-65
2022/02/13 04:25:02;;;;;;;14.55;8.38;;;-1.10;99.90;;;;;;5071433;28;20473;-64
2022/02/13 04:27:29;;;;;;;15.25;7.75;;;-1.00;99.90;;;;;;5070471;28;20056;-66
2022/02/13 04:29:56;;;;;;;13.00;8.00;;;-1.00;99.90;;;;;;5057529;28;20463;-65
2022/02/13 04:32:23;;;;;;;13.35;7.45;;;-1.00;99.90;;;;;;5065063;28;20067;-65
2022/02/13 04:34:50;;;;;;;11.95;7.70;;;-1.00;99.90;;;;;;5050820;28;20848;-65
2022/02/13 04:37:18;;;;;;;13.23;7.82;;;-1.00;99.90;;;;;;5070016;28;20110;-66
2022/02/13 04:39:45;;;;;;;15.50;8.13;;;-1.00;99.90;;;;;;5070935;28;20057;-65
2022/02/13 04:42:12;;;;;;;12.77;7.72;;;-1.00;99.90;;;;;;5061823;28;20052;-65
2022/02/13 04:44:41;;;;;;;13.80;7.40;;;-1.00;99.90;;;;;;5071540;28;20148;-65
2022/02/13 04:47:08;;;;;;;14.52;8.15;;;-1.00;99.90;;;;;;5070337;28;20036;-65
2022/02/13 04:49:36;;;;;;;16.98;8.60;;;-0.90;99.90;;;;;;5053889;28;20047;-65
2022/02/13 04:52:04;;;;;;;14.18;8.35;;;-0.90;99.90;;;;;;5071310;28;20048;-65
2022/02/13 04:54:31;;;;;;;12.43;7.50;;;-0.90;99.90;;;;;;5063825;28;20041;-66
2022/02/13 04:57:01;;;;;;;14.27;7.97;;;-0.90;99.90;;;;;;5054443;28;20504;-65
2022/02/13 04:59:33;;;;;;;12.75;7.15;;;-0.90;99.90;;;;;;5061825;28;20075;-65
2022/02/13 05:02:01;;;;;;;15.95;7.72;;;-0.90;99.90;;;;;;5063484;28;20562;-65
2022/02/13 05:04:30;;;;;;;13.50;7.88;;;-0.90;99.90;;;;;;5071206;28;20476;-65
2022/02/13 05:06:58;;;;;;;13.93;8.90;;;-0.90;99.90;;;;;;5051466;28;20518;-65
2022/02/13 05:09:25;;;;;;;15.30;8.02;;;-0.90;99.90;;;;;;5069346;28;20044;-65
2022/02/13 05:11:53;;;;;;;12.52;7.53;;;-0.80;99.90;;;;;;5050002;28;20417;-66
2022/02/13 05:14:20;;;;;;;12.18;7.97;;;-0.80;99.90;;;;;;5070930;28;20118;-65
2022/02/13 05:16:47;;;;;;;13.48;7.60;;;-0.90;99.90;;;;;;5070254;28;20531;-65
2022/02/13 05:19:14;;;;;;;13.00;7.28;;;-0.90;99.90;;;;;;5070235;28;20048;-66
2022/02/13 05:21:43;;;;;;;14.93;7.90;;;-0.90;99.90;;;;;;5070623;28;20411;-65
2022/02/13 05:24:10;;;;;;;12.48;7.43;;;-0.90;99.90;;;;;;5066952;28;20128;-66
2022/02/13 05:26:38;;;;;;;13.63;8.20;;;-1.00;99.90;;;;;;5064466;28;20047;-65
2022/02/13 05:29:05;;;;;;;13.90;7.93;;;-1.00;99.90;;;;;;5069334;28;20056;-65
2022/02/13 05:31:32;;;;;;;14.27;8.18;;;-1.00;99.90;;;;;;5069107;28;20072;-65
2022/02/13 05:34:00;;;;;;;14.40;7.97;;;-1.00;99.90;;;;;;5067532;28;20037;-65
2022/02/13 05:36:28;;;;;;;14.73;8.40;;;-1.00;99.90;;;;;;5063758;28;20550;-65
2022/02/13 05:38:55;;;;;;;14.02;8.45;;;-1.00;99.90;;;;;;5067280;28;20044;-66
2022/02/13 05:41:23;;;;;;;14.45;8.20;;;-0.90;99.90;;;;;;5066155;28;20064;-65
2022/02/13 05:43:50;;;;;;;14.88;8.77;;;-1.00;99.90;;;;;;5068802;28;20072;-65
2022/02/13 05:46:20;;;;;;;13.02;7.88;;;-1.00;99.90;;;;;;5068524;28;20135;-65
2022/02/13 05:48:47;;;;;;;14.45;8.55;;;-0.90;99.90;;;;;;5070784;28;20408;-66
2022/02/13 05:51:14;;;;;;;13.77;7.50;;;-0.90;99.90;;;;;;5064003;28;20170;-67
2022/02/13 05:53:44;;;;;;;14.88;7.40;;;-0.90;99.90;;;;;;5070677;28;20044;-66
2022/02/13 05:56:11;;;;;;;13.90;8.07;;;-1.00;99.90;;;;;;5065977;28;20494;-66
2022/02/13 05:58:44;;;;;;;17.08;8.57;;;-1.10;99.90;;;;;;5062558;28;20131;-66
2022/02/13 06:01:14;;;;;;;17.15;8.35;;;-1.00;99.90;;;;;;5057050;28;20061;-65
2022/02/13 06:03:42;;;;;;;15.55;8.88;;;-1.00;99.90;;;;;;5052989;28;20403;-65
2022/02/13 06:06:09;;;;;;;16.00;8.10;;;-1.00;99.90;;;;;;5069789;28;20040;-66
2022/02/13 06:08:37;;;;;;;13.15;8.38;;;-1.00;99.90;;;;;;5068533;28;20119;-65
2022/02/13 06:11:05;;;;;;;14.23;8.68;;;-1.00;99.90;;;;;;5065365;28;20041;-65
2022/02/13 06:13:34;;;;;;;16.85;8.90;;;-1.00;99.90;;;;;;5070707;28;20037;-64
2022/02/13 06:16:01;;;;;;;13.85;8.60;;;-1.00;99.90;;;;;;5069475;28;20599;-65
2022/02/13 06:18:29;;;;;;;15.15;8.70;;;-1.00;99.90;;;;;;5062388;28;20049;-66
2022/02/13 06:20:56;;;;;;;16.73;9.43;;;-1.00;99.90;;;;;;5047352;28;20048;-66
2022/02/13 06:23:24;;;;;;;14.20;9.45;;;-0.90;99.90;;;;;;5068967;28;20075;-66
2022/02/13 06:25:53;;;;;;;16.05;8.60;;;-1.00;99.90;;;;;;5069297;28;20094;-65
2022/02/13 06:28:20;;;;;;;12.63;7.88;;;-0.90;99.90;;;;;;5069556;28;20063;-66
2022/02/13 06:30:48;;;;;;;15.40;8.05;;;-0.90;99.90;;;;;;5051300;28;20063;-65
2022/02/13 06:33:20;;;;;;;15.43;8.13;;;-1.00;99.90;;;;;;5071127;28;20037;-65
2022/02/13 06:35:47;;;;;;;18.73;9.00;;;-1.00;99.90;;;;;;5071342;28;20577;-65
2022/02/13 06:38:15;;;;;;;17.38;9.25;;;-1.00;99.90;;;;;;5069196;28;20040;-65
2022/02/13 06:40:43;;;;;;;15.95;9.20;;;-1.10;99.90;;;;;;5070197;28;20044;-66
2022/02/13 06:43:10;;;;;;;16.85;9.18;;;-1.00;99.90;;;;;;5058823;28;20104;-65
2022/02/13 06:45:38;;;;;;;14.48;8.50;;;-1.00;99.90;;;;;;5073152;28;20040;-65
2022/02/13 06:48:05;;;;;;;16.75;9.48;;;-1.00;99.90;;;;;;5071431;28;20471;-65
2022/02/13 06:50:32;;;;;;;14.48;8.32;;;-1.00;99.90;;;;;;5058781;28;20032;-65
2022/02/13 06:53:01;;;;;;;14.85;8.52;;;-0.90;99.90;;;;;;5073511;28;20048;-66
2022/02/13 06:55:29;;;;;;;16.33;8.65;;;-0.90;99.90;;;;;;5073539;28;20452;-65
2022/02/13 06:57:56;;;;;;;14.38;8.50;;;-0.80;99.90;;;;;;5075309;28;20062;-66
2022/02/13 07:00:23;;;;;;;16.13;9.02;;;-0.70;99.90;;;;;;5074350;28;20040;-67
2022/02/13 07:02:50;;;;;;;18.48;9.40;;;-0.70;99.90;;;;;;5034788;28;20072;-67
2022/02/13 07:05:19;;;;;;;13.73;8.73;;;-0.60;99.90;;;;;;5049393;28;20049;-66
2022/02/13 07:07:47;;;;;;;17.40;9.55;;;-0.50;99.90;;;;;;5073456;28;20066;-66
2022/02/13 07:10:14;;;;;;;15.38;9.23;;;-0.50;99.90;;;;;;5070256;28;20037;-65
2022/02/13 07:12:41;;;;;;;16.90;9.35;;;-0.40;99.90;;;;;;5070513;28;20337;-65
2022/02/13 07:15:09;;;;;;;14.70;8.73;;;-0.40;99.90;;;;;;5073052;28;20515;-66
2022/02/13 07:17:43;;;;;;;13.90;8.75;;;-0.30;99.90;;;;;;5074042;28;20049;-66
2022/02/13 07:20:10;;;;;;;16.48;8.30;;;-0.20;99.90;;;;;;5074884;28;20140;-66
2022/02/13 07:22:38;;;;;;;15.85;9.18;;;-0.10;99.90;;;;;;5073406;28;20051;-66
2022/02/13 07:25:08;;;;;;;15.02;8.93;;;-0.10;99.90;;;;;;5074016;28;20052;-66
2022/02/13 07:27:37;;;;;;;18.98;10.32;;;0.00;99.90;;;;;;5053312;28;20436;-67
2022/02/13 07:30:07;;;;;;;17.75;9.75;;;0.10;99.90;;;;;;5073532;28;20048;-67
2022/02/13 07:32:35;;;;;;;17.00;8.73;;;0.20;99.90;;;;;;5068320;28;20037;-66
2022/02/13 07:35:02;;;;;;;15.52;9.02;;;0.30;99.90;;;;;;5072616;28;20570;-66
2022/02/13 07:37:29;;;;;;;17.25;8.95;;;0.40;99.90;;;;;;5054841;28;20059;-66
2022/02/13 07:39:56;;;;;;;15.65;8.90;;;0.40;99.90;;;;;;5038839;28;20109;-67
2022/02/13 07:42:24;;;;;;;14.88;8.55;;;0.50;99.90;;;;;;5063294;28;20045;-67
2022/02/13 07:44:51;;;;;;;18.58;8.80;;;0.60;99.90;;;;;;5063675;28;20053;-68
2022/02/13 07:47:18;;;;;;;16.13;9.00;;;0.70;99.90;;;;;;5060585;28;20035;-67
2022/02/13 07:49:46;;;;;;;17.33;9.27;;;0.80;99.90;;;;;;5073524;28;20044;-67
2022/02/13 07:52:13;;;;;;;18.20;9.90;;;0.80;99.90;;;;;;5061381;28;20052;-66
2022/02/13 07:54:40;;;;;;;14.95;9.35;;;0.90;99.90;;;;;;5066857;28;20495;-68
2022/02/13 07:57:08;;;;;;;16.40;9.90;;;1.00;99.90;;;;;;5072482;28;20147;-67
2022/02/13 07:59:35;;;;;;;15.88;9.77;;;1.10;99.90;;;;;;5068660;28;20159;-66
2022/02/13 08:02:03;;;;;;;14.15;8.75;;;1.20;99.90;;;;;;5066826;28;20119;-67
2022/02/13 08:04:30;;;;;;;15.35;8.65;;;1.30;99.90;;;;;;5055398;28;20045;-67
2022/02/13 08:06:58;;;;;;;16.73;9.73;;;1.40;99.90;;;;;;5046101;28;20110;-67
2022/02/13 08:09:25;;;;;;;16.33;9.80;;;1.50;99.90;;;;;;5071365;28;20040;-67
2022/02/13 08:11:52;;;;;;;15.27;8.93;;;1.60;99.90;;;;;;5073659;28;20127;-67
2022/02/13 08:14:19;;;;;;;16.55;9.27;;;1.70;99.90;;;;;;5054195;28;20048;-67
2022/02/13 08:16:47;;;;;;;17.80;9.45;;;1.80;99.90;;;;;;5067642;28;20124;-68
2022/02/13 08:19:14;;;;;;;16.27;9.18;;;1.80;99.90;;;;;;5067742;28;20051;-67
2022/02/13 08:21:41;;;;;;;18.77;10.68;;;1.90;99.90;;;;;;5051312;28;20094;-67
2022/02/13 08:24:08;;;;;;;19.52;8.82;;;2.00;99.90;;;;;;5049466;28;20056;-66
2022/02/13 08:26:36;;;;;;;14.13;8.80;;;2.10;99.90;;;;;;5071544;28;20052;-66
2022/02/13 08:29:03;;;;;;;16.80;8.95;;;2.20;99.90;;;;;;5058375;28;20640;-66
2022/02/13 08:31:30;;;;;;;13.48;8.93;;;2.30;99.90;;;;;;5055675;28;20502;-66
2022/02/13 08:33:57;;;;;;;17.23;9.25;;;2.40;99.90;;;;;;5056071;28;20052;-66
2022/02/13 08:36:25;;;;;;;16.27;8.80;;;2.40;99.90;;;;;;5059776;28;20052;-66
2022/02/13 08:38:52;;;;;;;15.10;8.55;;;2.50;99.90;;;;;;5055884;28;20064;-66
2022/02/13 08:41:19;;;;;;;16.50;8.07;;;2.60;99.90;;;;;;5056409;28;20400;-66
2022/02/13 08:43:48;;;;;;;14.90;8.43;;;2.70;99.90;;;;;;5051726;28;20041;-66
2022/02/13 08:46:16;;;;;;;15.60;8.63;;;2.80;99.90;;;;;;5052628;28;20151;-66
2022/02/13 08:48:44;;;;;;;12.38;8.32;;;2.90;99.90;;;;;;5059300;28;20041;-65
2022/02/13 08:51:12;;;;;;;13.65;7.80;;;3.00;99.90;;;;;;5064407;28;20063;-66
2022/02/13 08:53:39;;;;;;;16.13;9.25;;;3.10;99.90;;;;;;5056681;28;20029;-66
2022/02/13 08:56:07;;;;;;;13.32;8.65;;;3.20;99.90;;;;;;5054608;28;20037;-65
2022/02/13 08:58:34;;;;;;;12.68;8.18;;;3.20;99.90;;;;;;5063281;28;20422;-65
2022/02/13 09:01:02;;;;;;;17.15;8.10;;;3.30;99.90;;;;;;5052909;28;20048;-65
2022/02/13 09:03:30;;;;;;;15.68;8.70;;;3.40;99.90;;;;;;5063906;28;20044;-65
2022/02/13 09:05:58;;;;;;;13.63;8.40;;;3.50;99.90;;;;;;5056662;28;20047;-65
2022/02/13 09:08:25;;;;;;;14.82;8.52;;;3.70;99.90;;;;;;5051060;28;20033;-67
2022/02/13 09:10:52;;;;;;;13.88;9.05;;;3.80;99.90;;;;;;5052503;28;20487;-66
2022/02/13 09:13:20;;;;;;;14.77;8.18;;;4.00;99.90;;;;;;5057504;28;20037;-67
2022/02/13 09:15:47;;;;;;;18.75;9.05;;;4.10;99.90;;;;;;5057101;28;20063;-67
2022/02/13 09:18:17;;;;;;;14.50;8.63;;;4.20;99.90;;;;;;5058245;28;20045;-67
2022/02/13 09:20:45;;;;;;;13.98;9.38;;;4.40;99.90;;;;;;5071616;28;20074;-69
2022/02/13 09:23:14;;;;;;;13.02;8.18;;;4.50;99.90;;;;;;5061847;28;20049;-68
2022/02/13 09:25:41;;;;;;;16.25;8.05;;;4.60;99.90;;;;;;5067611;28;20582;-67
2022/02/13 09:28:09;;;;;;;14.05;8.27;;;4.70;99.90;;;;;;5070343;28;20571;-68
2022/02/13 09:30:36;;;;;;;12.45;8.32;;;4.90;99.90;;;;;;5070403;28;20072;-67
2022/02/13 09:33:04;;;;;;;13.13;7.85;;;4.90;99.90;;;;;;5081836;28;20106;-69
2022/02/13 09:35:31;;;;;;;15.30;7.90;;;5.00;99.90;;;;;;5053039;28;20491;-68
2022/02/13 09:37:59;;;;;;;17.70;9.55;;;5.10;99.90;;;;;;5070678;28;20048;-67
2022/02/13 09:40:32;;;;;;;12.27;7.65;;;5.20;99.90;;;;;;5065367;28;20901;-66
2022/02/13 09:43:02;;;;;;;13.48;7.05;;;5.30;99.90;;;;;;5064504;28;20558;-67
2022/02/13 09:45:30;;;;;;;13.07;8.35;;;5.40;99.90;;;;;;5064842;28;20052;-68
2022/02/13 09:47:59;;;;;;;12.00;7.60;;;5.60;99.90;;;;;;5069973;28;20044;-66
2022/02/13 09:50:30;;;;;;;12.80;7.45;;;5.80;99.90;;;;;;5064015;28;20056;-67
2022/02/13 09:52:57;;;;;;;14.98;7.82;;;5.90;99.90;;;;;;5062445;28;20479;-67
2022/02/13 09:55:29;;;;;;;14.07;8.07;;;6.00;99.90;;;;;;5060341;28;20048;-68
2022/02/13 09:58:00;;;;;;;16.08;7.63;;;6.10;99.90;;;;;;5058624;28;20099;-67
2022/02/13 10:00:57;;;;;;;13.52;8.05;;;6.20;99.90;;;;;;5068475;28;20051;-66
2022/02/13 10:03:27;;;;;;;12.60;7.88;;;6.40;99.90;;;;;;5060608;28;20059;-67
2022/02/13 10:05:57;;;;;;;14.80;7.60;;;6.70;99.90;;;;;;5059893;28;20495;-68
2022/02/13 10:08:36;;;;;;;10.98;7.53;;;6.90;99.90;;;;;;5063094;28;20518;-67
2022/02/13 10:11:24;;;;;;;12.43;7.38;;;7.10;99.90;;;;;;5065725;28;20037;-67
2022/02/13 10:13:51;;;;;;;11.77;7.47;;;7.20;99.90;;;;;;5069763;28;20555;-68
2022/02/13 10:16:20;;;;;;;12.40;7.60;;;7.40;99.90;;;;;;5066770;28;20121;-68
2022/02/13 10:18:51;;;;;;;12.55;7.20;;;7.60;99.90;;;;;;5033507;28;20037;-67
2022/02/13 10:21:38;;;;;;;11.35;7.40;;;7.60;99.90;;;;;;5073096;28;20044;-67
2022/02/13 10:24:23;;;;;;;14.95;7.90;;;7.70;99.90;;;;;;5069904;28;20048;-66
2022/02/13 10:26:56;;;;;;;12.93;7.93;;;7.90;99.90;;;;;;5068758;28;20045;-68
2022/02/13 10:29:28;;;;;;;11.93;7.72;;;8.10;99.90;;;;;;5069595;28;20487;-66
2022/02/13 10:32:16;;;;;;;12.00;7.00;;;8.20;99.90;;;;;;5040408;28;20105;-68
2022/02/13 10:35:04;;;;;;;10.88;6.25;;;8.40;99.90;;;;;;5054129;28;20048;-67
2022/02/13 10:37:41;;;;;;;12.90;6.70;;;8.60;99.90;;;;;;5038025;28;20037;-67
2022/02/13 10:40:17;;;;;;;10.20;6.47;;;8.70;99.90;;;;;;5070817;28;20055;-67
2022/02/13 10:42:49;;;;;;;11.80;7.32;;;8.90;99.90;;;;;;5064841;28;20208;-68
2022/02/13 10:45:23;;;;;;;13.73;7.30;;;9.10;99.90;;;;;;5055206;28;20041;-67
2022/02/13 10:48:06;;;;;;;13.00;7.10;;;9.20;99.90;;;;;;5071357;28;20071;-67
2022/02/13 10:50:39;;;;;;;13.40;7.75;;;9.30;99.90;;;;;;5069935;28;20136;-66
2022/02/13 10:53:08;;;;;;;13.23;6.88;;;9.40;99.90;;;;;;5062661;28;20041;-67
2022/02/13 10:55:37;;;;;;;11.02;6.72;;;9.50;99.90;;;;;;5044155;28;20483;-67
2022/02/13 10:58:05;;;;;;;12.98;7.38;;;9.60;99.90;;;;;;5073326;28;20485;-67
2022/02/13 11:00:37;;;;;;;11.88;6.50;;;9.90;99.90;;;;;;5072702;28;20044;-66
2022/02/13 11:03:06;;;;;;;;;;;10.10;99.90;;;;;;5054673;28;20044;-67
2022/02/13 11:05:33;;;;;;;12.35;6.68;;;10.30;99.90;;;;;;5072582;28;20458;-67
2022/02/13 11:08:09;;;;;;;13.10;6.57;;;10.60;99.90;;;;;;5073319;28;20122;-67
2022/02/13 11:10:40;;;;;;;10.50;6.10;;;10.90;99.90;;;;;;5073080;28;20053;-68
2022/02/13 11:13:11;;;;;;;13.43;7.33;;;11.20;99.90;;;;;;5058728;28;20056;-67
2022/02/13 11:15:39;;;;;;;11.82;6.78;;;11.30;99.90;;;;;;5055154;28;20289;-67
2022/02/13 11:18:08;;;;;;;12.00;7.55;;;11.40;99.90;;;;;;5071891;28;20530;-67
2022/02/13 11:20:36;;;;;;;11.95;6.38;;;11.50;99.90;;;;;;5069737;28;20381;-67
2022/02/13 11:23:23;;;;;;;10.50;6.80;;;11.60;99.90;;;;;;5071641;28;20048;-67
2022/02/13 11:26:00;;;;;;;9.75;6.47;;;11.70;99.90;;;;;;5060041;28;20044;-67
2022/02/13 11:28:44;;;;;;;10.52;6.82;;;11.90;99.90;;;;;;5071995;28;20048;-67
2022/02/13 11:31:39;;;;;;;11.02;6.32;;;12.30;99.90;;;;;;5071401;28;20048;-67
2022/02/13 11:34:12;;;;;;;14.15;6.05;;;12.40;99.90;;;;;;5066103;28;20036;-66
2022/02/13 11:36:49;;;;;;;11.75;6.13;;;12.60;99.90;;;;;;5072071;28;20044;-67
2022/02/13 11:39:35;;;;;;;12.52;6.45;;;12.90;99.90;;;;;;5065763;28;20041;-66
2022/02/13 11:42:35;;;;;;;10.20;5.47;;;13.20;99.90;;;;;;5043985;28;20454;-66
2022/02/13 11:45:18;;;;;;;12.18;5.97;;;13.30;99.90;;;;;;5057379;28;20060;-67
2022/02/13 11:47:46;;;;;;;9.38;5.90;;;13.30;99.90;;;;;;5059335;28;20048;-68
2022/02/13 11:50:24;;;;;;;10.50;5.97;;;13.50;99.90;;;;;;5052820;28;20487;-67
2022/02/13 11:53:04;;;;;;;9.88;6.05;;;13.50;99.90;;;;;;5052345;28;20053;-66
2022/02/13 11:55:37;;;;;;;14.30;6.22;;;13.80;99.90;;;;;;5052593;28;20087;-67
2022/02/13 11:58:14;;;;;;;12.88;6.95;;;14.10;99.90;;;;;;5072201;28;20060;-67
2022/02/13 12:00:43;;;;;;;14.75;6.53;;;14.40;99.90;;;;;;5071339;28;20927;-68
2022/02/13 12:03:19;;;;;;;17.30;7.68;;;14.30;99.90;;;;;;5072293;28;20072;-67
2022/02/13 12:06:13;;;;;;;12.70;6.43;;;14.60;99.90;;;;;;5072106;28;20509;-67
2022/02/13 12:08:42;;;;;;;12.60;6.90;;;14.70;99.90;;;;;;5072349;28;20484;-68
2022/02/13 12:11:10;;;;;;;12.55;6.20;;;14.80;99.90;;;;;;5053359;28;20039;-67
2022/02/13 12:13:38;;;;;;;11.15;6.20;;;14.90;99.90;;;;;;5053802;28;20041;-67
2022/02/13 12:16:07;;;;;;;11.10;6.38;;;15.20;99.90;;;;;;5071455;28;20054;-66
2022/02/13 12:18:35;;;;;;;14.18;5.82;;;15.40;99.90;;;;;;5071155;28;20055;-66
2022/02/13 12:21:05;;;;;;;10.77;6.03;;;15.40;99.90;;;;;;5070828;28;20071;-66
2022/02/13 12:23:32;;;;;;;7.65;5.13;;;15.70;99.90;;;;;;5070536;28;20178;-66
2022/02/13 12:26:00;;;;;;;12.38;5.25;;;16.30;99.90;;;;;;5069712;28;20049;-67
2022/02/13 12:28:33;;;;;;;12.57;5.32;;;16.60;99.90;;;;;;5051013;28;20128;-67
2022/02/13 12:31:03;;;;;;;10.98;5.28;;;16.80;99.90;;;;;;5052152;28;20071;-68
2022/02/13 12:33:38;;;;;;;12.45;5.90;;;17.20;99.90;;;;;;5064207;28;20399;-67
2022/02/13 12:36:06;;;;;;;9.02;4.80;;;17.50;99.90;;;;;;5064409;28;20040;-67
2022/02/13 12:38:33;;;;;;;10.05;5.07;;;19.30;99.90;;;;;;5070196;28;20045;-68
2022/02/13 12:41:01;;;;;;;10.73;5.05;;;21.40;96.30;;;;;;5069091;28;20068;-68
2022/02/13 12:43:29;;;;;;;8.00;4.60;;;22.10;93.10;;;;;;5065651;28;20076;-66
2022/02/13 12:45:58;;;;;;;8.57;4.65;;;23.70;90.10;;;;;;5069581;28;20059;-67
2022/02/13 12:48:28;;;;;;;8.13;4.65;;;24.30;84.50;;;;;;5065141;28;20068;-67
2022/02/13 12:50:58;;;;;;;11.20;5.55;;;24.40;80.30;;;;;;5066825;28;20124;-67
2022/02/13 12:53:30;;;;;;;6.85;4.10;;;25.60;77.40;;;;;;5068692;28;20040;-68